sensor_id;sensor_type;location;lat;lon;timestamp;P1;durP1;ratioP1;P2;durP2;ratioP2
15412;SDS011;7805;49.554;7.632;2022-12-18T00:01:34;27.57;;;14.67;;
15412;SDS011;7805;49.554;7.632;2022-12-18T00:04:02;29.47;;;14.67;;
15412;SDS011;7805;49.554;7.632;2022-12-18T00:06:29;28.67;;;14.37;;
15412;SDS011;7805;49.554;7.632;2022-12-18T00:08:55;23.97;;;13.43;;
15412;SDS011;7805;49.554;7.632;2022-12-18T00:11:24;29.17;;;14.27;;
15412;SDS011;7805;49.554;7.632;2022-12-18T00:13:53;28.73;;;14.63;;
15412;SDS011;7805;49.554;7.632;2022-12-18T00:16:20;27.03;;;14.40;;
15412;SDS011;7805;49.554;7.632;2022-12-18T00:18:48;27.33;;;14.07;;
15412;SDS011;7805;49.554;7.632;2022-12-18T00:21:15;26.97;;;15.20;;
15412;SDS011;7805;49.554;7.632;2022-12-18T00:23:41;30.77;;;14.80;;
15412;SDS011;7805;49.554;7.632;2022-12-18T00:26:10;28.20;;;13.97;;
15412;SDS011;7805;49.554;7.632;2022-12-18T00:28:37;28.50;;;14.97;;
15412;SDS011;7805;49.554;7.632;2022-12-18T00:31:06;32.63;;;15.17;;
15412;SDS011;7805;49.554;7.632;2022-12-18T00:33:33;32.00;;;14.77;;
15412;SDS011;7805;49.554;7.632;2022-12-18T00:36:04;29.53;;;14.77;;
15412;SDS011;7805;49.554;7.632;2022-12-18T00:38:30;31.17;;;15.03;;
15412;SDS011;7805;49.554;7.632;2022-12-18T00:40:56;29.47;;;14.97;;
15412;SDS011;7805;49.554;7.632;2022-12-18T00:43:22;28.27;;;14.97;;
15412;SDS011;7805;49.554;7.632;2022-12-18T00:45:48;35.80;;;17.43;;
15412;SDS011;7805;49.554;7.632;2022-12-18T00:48:13;27.07;;;13.93;;
15412;SDS011;7805;49.554;7.632;2022-12-18T00:50:39;32.67;;;15.53;;
15412;SDS011;7805;49.554;7.632;2022-12-18T00:53:04;29.33;;;14.03;;
15412;SDS011;7805;49.554;7.632;2022-12-18T00:55:30;30.10;;;14.53;;
15412;SDS011;7805;49.554;7.632;2022-12-18T00:57:55;25.20;;;14.10;;
15412;SDS011;7805;49.554;7.632;2022-12-18T01:00:21;31.83;;;15.23;;
15412;SDS011;7805;49.554;7.632;2022-12-18T01:02:47;28.10;;;14.67;;
15412;SDS011;7805;49.554;7.632;2022-12-18T01:05:13;35.93;;;16.23;;
15412;SDS011;7805;49.554;7.632;2022-12-18T01:07:39;27.67;;;15.33;;
15412;SDS011;7805;49.554;7.632;2022-12-18T01:10:05;30.40;;;16.00;;
15412;SDS011;7805;49.554;7.632;2022-12-18T01:12:31;32.60;;;15.27;;
15412;SDS011;7805;49.554;7.632;2022-12-18T01:14:57;28.73;;;13.53;;
15412;SDS011;7805;49.554;7.632;2022-12-18T01:17:23;30.73;;;14.87;;
15412;SDS011;7805;49.554;7.632;2022-12-18T01:19:49;27.97;;;15.57;;
15412;SDS011;7805;49.554;7.632;2022-12-18T01:22:14;26.70;;;15.43;;
15412;SDS011;7805;49.554;7.632;2022-12-18T01:24:40;29.00;;;13.90;;
15412;SDS011;7805;49.554;7.632;2022-12-18T01:27:06;30.50;;;13.93;;
15412;SDS011;7805;49.554;7.632;2022-12-18T01:29:31;28.37;;;13.63;;
15412;SDS011;7805;49.554;7.632;2022-12-18T01:31:57;27.30;;;14.57;;
15412;SDS011;7805;49.554;7.632;2022-12-18T01:34:23;31.87;;;14.97;;
15412;SDS011;7805;49.554;7.632;2022-12-18T01:36:49;29.60;;;15.20;;
15412;SDS011;7805;49.554;7.632;2022-12-18T01:39:17;29.00;;;13.80;;
15412;SDS011;7805;49.554;7.632;2022-12-18T01:41:43;28.17;;;13.70;;
15412;SDS011;7805;49.554;7.632;2022-12-18T01:47:18;32.80;;;13.93;;
15412;SDS011;7805;49.554;7.632;2022-12-18T01:49:48;31.47;;;15.17;;
15412;SDS011;7805;49.554;7.632;2022-12-18T01:52:14;31.27;;;14.37;;
15412;SDS011;7805;49.554;7.632;2022-12-18T01:54:40;30.70;;;13.57;;
15412;SDS011;7805;49.554;7.632;2022-12-18T01:57:06;33.30;;;15.07;;
15412;SDS011;7805;49.554;7.632;2022-12-18T01:59:32;31.93;;;15.37;;
15412;SDS011;7805;49.554;7.632;2022-12-18T02:02:00;30.67;;;14.77;;
15412;SDS011;7805;49.554;7.632;2022-12-18T02:04:27;31.87;;;14.97;;
15412;SDS011;7805;49.554;7.632;2022-12-18T02:07:57;28.57;;;14.37;;
15412;SDS011;7805;49.554;7.632;2022-12-18T02:12:35;32.60;;;15.13;;
15412;SDS011;7805;49.554;7.632;2022-12-18T02:15:15;28.40;;;14.33;;
15412;SDS011;7805;49.554;7.632;2022-12-18T02:17:56;29.23;;;14.67;;
15412;SDS011;7805;49.554;7.632;2022-12-18T02:20:33;29.13;;;14.87;;
15412;SDS011;7805;49.554;7.632;2022-12-18T02:28:45;35.87;;;15.53;;
15412;SDS011;7805;49.554;7.632;2022-12-18T02:31:19;27.73;;;14.10;;
15412;SDS011;7805;49.554;7.632;2022-12-18T02:33:49;31.43;;;14.90;;
15412;SDS011;7805;49.554;7.632;2022-12-18T02:36:16;33.67;;;15.07;;
15412;SDS011;7805;49.554;7.632;2022-12-18T02:38:43;32.87;;;14.60;;
15412;SDS011;7805;49.554;7.632;2022-12-18T02:41:11;27.97;;;13.90;;
15412;SDS011;7805;49.554;7.632;2022-12-18T02:43:38;29.03;;;14.87;;
15412;SDS011;7805;49.554;7.632;2022-12-18T02:48:51;29.77;;;15.27;;
15412;SDS011;7805;49.554;7.632;2022-12-18T02:51:25;34.93;;;16.20;;
15412;SDS011;7805;49.554;7.632;2022-12-18T02:53:59;30.17;;;15.43;;
15412;SDS011;7805;49.554;7.632;2022-12-18T02:56:38;31.90;;;15.00;;
15412;SDS011;7805;49.554;7.632;2022-12-18T02:59:17;31.50;;;16.10;;
15412;SDS011;7805;49.554;7.632;2022-12-18T03:01:56;34.10;;;16.03;;
15412;SDS011;7805;49.554;7.632;2022-12-18T03:04:36;30.07;;;14.30;;
15412;SDS011;7805;49.554;7.632;2022-12-18T03:07:09;31.50;;;15.83;;
15412;SDS011;7805;49.554;7.632;2022-12-18T03:09:41;29.60;;;14.17;;
15412;SDS011;7805;49.554;7.632;2022-12-18T03:12:14;35.33;;;15.57;;
15412;SDS011;7805;49.554;7.632;2022-12-18T03:15:00;28.47;;;14.23;;
15412;SDS011;7805;49.554;7.632;2022-12-18T03:17:33;30.70;;;14.47;;
15412;SDS011;7805;49.554;7.632;2022-12-18T03:20:07;33.90;;;14.97;;
15412;SDS011;7805;49.554;7.632;2022-12-18T03:22:37;25.40;;;13.27;;
15412;SDS011;7805;49.554;7.632;2022-12-18T03:25:06;30.57;;;14.90;;
15412;SDS011;7805;49.554;7.632;2022-12-18T03:27:35;28.10;;;14.43;;
15412;SDS011;7805;49.554;7.632;2022-12-18T03:30:04;31.73;;;15.27;;
15412;SDS011;7805;49.554;7.632;2022-12-18T03:32:35;29.17;;;14.17;;
15412;SDS011;7805;49.554;7.632;2022-12-18T03:35:14;29.07;;;14.70;;
15412;SDS011;7805;49.554;7.632;2022-12-18T03:37:43;33.50;;;15.63;;
15412;SDS011;7805;49.554;7.632;2022-12-18T03:40:09;26.93;;;13.67;;
15412;SDS011;7805;49.554;7.632;2022-12-18T03:42:51;26.07;;;14.30;;
15412;SDS011;7805;49.554;7.632;2022-12-18T03:45:32;30.50;;;14.40;;
15412;SDS011;7805;49.554;7.632;2022-12-18T03:48:06;31.00;;;15.20;;
15412;SDS011;7805;49.554;7.632;2022-12-18T03:50:45;31.60;;;14.57;;
15412;SDS011;7805;49.554;7.632;2022-12-18T03:55:50;27.37;;;13.83;;
15412;SDS011;7805;49.554;7.632;2022-12-18T03:58:18;31.23;;;13.87;;
15412;SDS011;7805;49.554;7.632;2022-12-18T04:00:48;29.00;;;14.37;;
15412;SDS011;7805;49.554;7.632;2022-12-18T04:03:17;28.70;;;14.13;;
15412;SDS011;7805;49.554;7.632;2022-12-18T04:05:46;29.07;;;13.50;;
15412;SDS011;7805;49.554;7.632;2022-12-18T04:08:15;27.50;;;14.33;;
15412;SDS011;7805;49.554;7.632;2022-12-18T04:10:40;27.77;;;13.77;;
15412;SDS011;7805;49.554;7.632;2022-12-18T04:13:06;28.07;;;13.47;;
15412;SDS011;7805;49.554;7.632;2022-12-18T04:15:35;28.77;;;14.00;;
15412;SDS011;7805;49.554;7.632;2022-12-18T04:18:02;29.37;;;14.20;;
15412;SDS011;7805;49.554;7.632;2022-12-18T04:20:28;29.00;;;14.03;;
15412;SDS011;7805;49.554;7.632;2022-12-18T04:22:54;24.83;;;13.67;;
15412;SDS011;7805;49.554;7.632;2022-12-18T04:25:19;34.17;;;15.90;;
15412;SDS011;7805;49.554;7.632;2022-12-18T04:27:45;29.67;;;14.73;;
15412;SDS011;7805;49.554;7.632;2022-12-18T04:30:10;29.83;;;14.63;;
15412;SDS011;7805;49.554;7.632;2022-12-18T04:32:36;30.27;;;13.90;;
15412;SDS011;7805;49.554;7.632;2022-12-18T04:35:02;27.30;;;14.13;;
15412;SDS011;7805;49.554;7.632;2022-12-18T04:37:29;26.77;;;12.80;;
15412;SDS011;7805;49.554;7.632;2022-12-18T04:39:54;32.60;;;15.33;;
15412;SDS011;7805;49.554;7.632;2022-12-18T04:42:20;30.90;;;15.07;;
15412;SDS011;7805;49.554;7.632;2022-12-18T04:44:46;31.53;;;14.77;;
15412;SDS011;7805;49.554;7.632;2022-12-18T04:47:11;33.70;;;15.00;;
15412;SDS011;7805;49.554;7.632;2022-12-18T04:49:37;29.33;;;14.60;;
15412;SDS011;7805;49.554;7.632;2022-12-18T04:52:02;27.77;;;13.40;;
15412;SDS011;7805;49.554;7.632;2022-12-18T04:54:28;30.70;;;15.23;;
15412;SDS011;7805;49.554;7.632;2022-12-18T04:56:53;36.17;;;16.57;;
15412;SDS011;7805;49.554;7.632;2022-12-18T04:59:19;33.03;;;16.00;;
15412;SDS011;7805;49.554;7.632;2022-12-18T05:01:45;32.77;;;15.40;;
15412;SDS011;7805;49.554;7.632;2022-12-18T05:04:10;33.77;;;15.87;;
15412;SDS011;7805;49.554;7.632;2022-12-18T05:06:36;31.83;;;14.23;;
15412;SDS011;7805;49.554;7.632;2022-12-18T05:09:02;33.87;;;14.80;;
15412;SDS011;7805;49.554;7.632;2022-12-18T05:11:27;29.13;;;14.07;;
15412;SDS011;7805;49.554;7.632;2022-12-18T05:13:56;36.67;;;16.23;;
15412;SDS011;7805;49.554;7.632;2022-12-18T05:16:21;37.77;;;16.07;;
15412;SDS011;7805;49.554;7.632;2022-12-18T05:18:47;34.37;;;15.17;;
15412;SDS011;7805;49.554;7.632;2022-12-18T05:21:13;32.73;;;16.23;;
15412;SDS011;7805;49.554;7.632;2022-12-18T05:23:38;34.50;;;15.90;;
15412;SDS011;7805;49.554;7.632;2022-12-18T05:26:04;30.17;;;14.67;;
15412;SDS011;7805;49.554;7.632;2022-12-18T05:28:32;27.93;;;13.43;;
15412;SDS011;7805;49.554;7.632;2022-12-18T05:30:59;31.73;;;14.77;;
15412;SDS011;7805;49.554;7.632;2022-12-18T05:33:28;30.27;;;14.90;;
15412;SDS011;7805;49.554;7.632;2022-12-18T05:35:56;30.90;;;14.40;;
15412;SDS011;7805;49.554;7.632;2022-12-18T05:38:24;28.30;;;14.17;;
15412;SDS011;7805;49.554;7.632;2022-12-18T05:40:50;29.87;;;14.67;;
15412;SDS011;7805;49.554;7.632;2022-12-18T05:43:17;34.30;;;15.70;;
15412;SDS011;7805;49.554;7.632;2022-12-18T05:45:44;34.63;;;15.33;;
15412;SDS011;7805;49.554;7.632;2022-12-18T05:48:10;34.80;;;16.03;;
15412;SDS011;7805;49.554;7.632;2022-12-18T05:50:39;29.37;;;14.17;;
15412;SDS011;7805;49.554;7.632;2022-12-18T05:53:06;31.33;;;15.20;;
15412;SDS011;7805;49.554;7.632;2022-12-18T05:55:32;36.30;;;16.37;;
15412;SDS011;7805;49.554;7.632;2022-12-18T05:58:02;30.10;;;14.17;;
15412;SDS011;7805;49.554;7.632;2022-12-18T06:00:29;30.97;;;15.43;;
15412;SDS011;7805;49.554;7.632;2022-12-18T06:02:56;35.67;;;15.00;;
15412;SDS011;7805;49.554;7.632;2022-12-18T06:05:22;32.53;;;15.30;;
15412;SDS011;7805;49.554;7.632;2022-12-18T06:07:48;29.97;;;15.13;;
15412;SDS011;7805;49.554;7.632;2022-12-18T06:10:13;31.03;;;14.70;;
15412;SDS011;7805;49.554;7.632;2022-12-18T06:12:39;27.53;;;13.70;;
15412;SDS011;7805;49.554;7.632;2022-12-18T06:15:05;30.80;;;13.27;;
15412;SDS011;7805;49.554;7.632;2022-12-18T06:17:31;30.33;;;15.10;;
15412;SDS011;7805;49.554;7.632;2022-12-18T06:19:57;40.03;;;16.63;;
15412;SDS011;7805;49.554;7.632;2022-12-18T06:22:23;30.63;;;15.00;;
15412;SDS011;7805;49.554;7.632;2022-12-18T06:24:49;33.57;;;14.80;;
15412;SDS011;7805;49.554;7.632;2022-12-18T06:27:15;32.83;;;15.80;;
15412;SDS011;7805;49.554;7.632;2022-12-18T06:29:41;30.20;;;15.40;;
15412;SDS011;7805;49.554;7.632;2022-12-18T06:32:06;31.43;;;16.00;;
15412;SDS011;7805;49.554;7.632;2022-12-18T06:34:32;34.30;;;15.50;;
15412;SDS011;7805;49.554;7.632;2022-12-18T06:36:58;27.70;;;14.10;;
15412;SDS011;7805;49.554;7.632;2022-12-18T06:39:24;31.53;;;14.40;;
15412;SDS011;7805;49.554;7.632;2022-12-18T06:41:52;31.93;;;15.50;;
15412;SDS011;7805;49.554;7.632;2022-12-18T06:44:18;33.60;;;15.47;;
15412;SDS011;7805;49.554;7.632;2022-12-18T06:46:43;30.77;;;14.77;;
15412;SDS011;7805;49.554;7.632;2022-12-18T06:49:09;28.77;;;13.90;;
15412;SDS011;7805;49.554;7.632;2022-12-18T06:51:35;29.50;;;15.27;;
15412;SDS011;7805;49.554;7.632;2022-12-18T06:54:00;31.77;;;14.27;;
15412;SDS011;7805;49.554;7.632;2022-12-18T06:56:27;32.63;;;14.47;;
15412;SDS011;7805;49.554;7.632;2022-12-18T06:58:53;27.40;;;13.60;;
15412;SDS011;7805;49.554;7.632;2022-12-18T07:01:18;30.53;;;14.53;;
15412;SDS011;7805;49.554;7.632;2022-12-18T07:03:44;24.87;;;13.57;;
15412;SDS011;7805;49.554;7.632;2022-12-18T07:06:14;28.13;;;13.90;;
15412;SDS011;7805;49.554;7.632;2022-12-18T07:08:44;30.03;;;13.83;;
15412;SDS011;7805;49.554;7.632;2022-12-18T07:11:10;29.93;;;13.70;;
15412;SDS011;7805;49.554;7.632;2022-12-18T07:13:36;31.70;;;13.90;;
15412;SDS011;7805;49.554;7.632;2022-12-18T07:16:08;29.40;;;14.67;;
15412;SDS011;7805;49.554;7.632;2022-12-18T07:18:35;35.30;;;16.67;;
15412;SDS011;7805;49.554;7.632;2022-12-18T07:21:05;36.63;;;15.70;;
15412;SDS011;7805;49.554;7.632;2022-12-18T07:23:32;33.13;;;14.93;;
15412;SDS011;7805;49.554;7.632;2022-12-18T07:26:03;31.80;;;15.50;;
15412;SDS011;7805;49.554;7.632;2022-12-18T07:28:31;36.83;;;16.63;;
15412;SDS011;7805;49.554;7.632;2022-12-18T07:30:58;32.80;;;16.33;;
15412;SDS011;7805;49.554;7.632;2022-12-18T07:33:27;35.10;;;15.63;;
15412;SDS011;7805;49.554;7.632;2022-12-18T07:35:52;34.23;;;15.57;;
15412;SDS011;7805;49.554;7.632;2022-12-18T07:38:18;36.53;;;16.53;;
15412;SDS011;7805;49.554;7.632;2022-12-18T07:40:43;36.90;;;17.43;;
15412;SDS011;7805;49.554;7.632;2022-12-18T07:43:09;32.27;;;15.23;;
15412;SDS011;7805;49.554;7.632;2022-12-18T07:45:34;36.57;;;15.63;;
15412;SDS011;7805;49.554;7.632;2022-12-18T07:48:01;38.03;;;16.43;;
15412;SDS011;7805;49.554;7.632;2022-12-18T07:50:26;34.23;;;16.30;;
15412;SDS011;7805;49.554;7.632;2022-12-18T07:52:52;36.70;;;17.80;;
15412;SDS011;7805;49.554;7.632;2022-12-18T07:55:17;37.47;;;17.33;;
15412;SDS011;7805;49.554;7.632;2022-12-18T07:57:43;35.77;;;18.00;;
15412;SDS011;7805;49.554;7.632;2022-12-18T08:00:09;38.00;;;17.93;;
15412;SDS011;7805;49.554;7.632;2022-12-18T08:02:35;37.20;;;17.63;;
15412;SDS011;7805;49.554;7.632;2022-12-18T08:05:00;34.97;;;18.10;;
15412;SDS011;7805;49.554;7.632;2022-12-18T08:07:26;39.07;;;18.23;;
15412;SDS011;7805;49.554;7.632;2022-12-18T08:09:51;39.77;;;18.90;;
15412;SDS011;7805;49.554;7.632;2022-12-18T08:12:17;37.80;;;18.17;;
15412;SDS011;7805;49.554;7.632;2022-12-18T08:14:43;38.17;;;19.33;;
15412;SDS011;7805;49.554;7.632;2022-12-18T08:17:08;36.03;;;19.30;;
15412;SDS011;7805;49.554;7.632;2022-12-18T08:19:34;42.47;;;19.57;;
15412;SDS011;7805;49.554;7.632;2022-12-18T08:21:59;35.23;;;18.17;;
15412;SDS011;7805;49.554;7.632;2022-12-18T08:24:25;32.87;;;17.47;;
15412;SDS011;7805;49.554;7.632;2022-12-18T08:26:50;34.63;;;17.77;;
15412;SDS011;7805;49.554;7.632;2022-12-18T08:29:16;39.60;;;18.37;;
15412;SDS011;7805;49.554;7.632;2022-12-18T08:31:42;37.13;;;18.63;;
15412;SDS011;7805;49.554;7.632;2022-12-18T08:34:07;39.67;;;17.97;;
15412;SDS011;7805;49.554;7.632;2022-12-18T08:36:33;36.57;;;19.00;;
15412;SDS011;7805;49.554;7.632;2022-12-18T08:38:58;38.90;;;17.93;;
15412;SDS011;7805;49.554;7.632;2022-12-18T08:41:24;35.93;;;17.33;;
15412;SDS011;7805;49.554;7.632;2022-12-18T08:43:49;37.83;;;19.00;;
15412;SDS011;7805;49.554;7.632;2022-12-18T08:46:38;37.80;;;18.17;;
15412;SDS011;7805;49.554;7.632;2022-12-18T08:49:05;38.73;;;18.43;;
15412;SDS011;7805;49.554;7.632;2022-12-18T08:51:32;41.30;;;20.10;;
15412;SDS011;7805;49.554;7.632;2022-12-18T08:53:58;43.13;;;20.30;;
15412;SDS011;7805;49.554;7.632;2022-12-18T08:56:24;40.77;;;20.63;;
15412;SDS011;7805;49.554;7.632;2022-12-18T08:58:53;40.47;;;20.97;;
15412;SDS011;7805;49.554;7.632;2022-12-18T09:01:19;43.27;;;22.80;;
15412;SDS011;7805;49.554;7.632;2022-12-18T09:03:45;44.83;;;22.77;;
15412;SDS011;7805;49.554;7.632;2022-12-18T09:06:19;40.13;;;23.03;;
15412;SDS011;7805;49.554;7.632;2022-12-18T09:08:45;43.97;;;22.30;;
15412;SDS011;7805;49.554;7.632;2022-12-18T09:11:19;42.77;;;23.37;;
15412;SDS011;7805;49.554;7.632;2022-12-18T09:13:49;56.83;;;30.37;;
15412;SDS011;7805;49.554;7.632;2022-12-18T09:16:16;49.70;;;28.33;;
15412;SDS011;7805;49.554;7.632;2022-12-18T09:18:41;44.37;;;24.90;;
15412;SDS011;7805;49.554;7.632;2022-12-18T09:21:08;45.53;;;23.87;;
15412;SDS011;7805;49.554;7.632;2022-12-18T09:23:35;45.20;;;23.07;;
15412;SDS011;7805;49.554;7.632;2022-12-18T09:26:00;50.87;;;26.50;;
15412;SDS011;7805;49.554;7.632;2022-12-18T09:28:26;43.23;;;23.37;;
15412;SDS011;7805;49.554;7.632;2022-12-18T09:30:52;51.97;;;31.67;;
15412;SDS011;7805;49.554;7.632;2022-12-18T09:33:17;52.03;;;30.47;;
15412;SDS011;7805;49.554;7.632;2022-12-18T09:35:44;48.87;;;26.60;;
15412;SDS011;7805;49.554;7.632;2022-12-18T09:38:14;39.87;;;24.10;;
15412;SDS011;7805;49.554;7.632;2022-12-18T09:40:48;38.23;;;21.60;;
15412;SDS011;7805;49.554;7.632;2022-12-18T09:43:18;38.13;;;21.30;;
15412;SDS011;7805;49.554;7.632;2022-12-18T09:46:17;42.33;;;23.40;;
15412;SDS011;7805;49.554;7.632;2022-12-18T09:48:50;43.40;;;22.53;;
15412;SDS011;7805;49.554;7.632;2022-12-18T09:51:21;39.50;;;23.50;;
15412;SDS011;7805;49.554;7.632;2022-12-18T09:53:59;48.43;;;26.37;;
15412;SDS011;7805;49.554;7.632;2022-12-18T09:56:30;45.33;;;24.73;;
15412;SDS011;7805;49.554;7.632;2022-12-18T09:59:01;41.63;;;23.10;;
15412;SDS011;7805;49.554;7.632;2022-12-18T10:01:29;40.57;;;23.60;;
15412;SDS011;7805;49.554;7.632;2022-12-18T10:03:56;40.53;;;22.90;;
15412;SDS011;7805;49.554;7.632;2022-12-18T10:06:27;39.73;;;22.07;;
15412;SDS011;7805;49.554;7.632;2022-12-18T10:09:15;46.00;;;25.60;;
15412;SDS011;7805;49.554;7.632;2022-12-18T10:17:23;45.53;;;25.90;;
15412;SDS011;7805;49.554;7.632;2022-12-18T10:20:28;41.83;;;23.57;;
15412;SDS011;7805;49.554;7.632;2022-12-18T10:23:02;41.43;;;25.17;;
15412;SDS011;7805;49.554;7.632;2022-12-18T10:28:24;46.87;;;25.93;;
15412;SDS011;7805;49.554;7.632;2022-12-18T10:30:51;41.73;;;23.67;;
15412;SDS011;7805;49.554;7.632;2022-12-18T10:33:18;41.30;;;23.80;;
15412;SDS011;7805;49.554;7.632;2022-12-18T10:35:47;40.90;;;23.70;;
15412;SDS011;7805;49.554;7.632;2022-12-18T10:43:47;39.13;;;21.93;;
15412;SDS011;7805;49.554;7.632;2022-12-18T10:46:14;36.17;;;21.67;;
15412;SDS011;7805;49.554;7.632;2022-12-18T10:56:41;37.70;;;23.20;;
15412;SDS011;7805;49.554;7.632;2022-12-18T10:59:08;63.80;;;32.73;;
15412;SDS011;7805;49.554;7.632;2022-12-18T11:01:45;77.67;;;39.90;;
15412;SDS011;7805;49.554;7.632;2022-12-18T11:04:13;63.87;;;33.40;;
15412;SDS011;7805;49.554;7.632;2022-12-18T11:09:22;44.33;;;24.43;;
15412;SDS011;7805;49.554;7.632;2022-12-18T11:11:50;45.00;;;25.13;;
15412;SDS011;7805;49.554;7.632;2022-12-18T11:14:21;44.50;;;25.73;;
15412;SDS011;7805;49.554;7.632;2022-12-18T11:16:50;45.13;;;25.20;;
15412;SDS011;7805;49.554;7.632;2022-12-18T11:19:31;49.20;;;27.27;;
15412;SDS011;7805;49.554;7.632;2022-12-18T11:22:02;44.80;;;23.73;;
15412;SDS011;7805;49.554;7.632;2022-12-18T11:24:49;41.87;;;23.40;;
15412;SDS011;7805;49.554;7.632;2022-12-18T11:27:29;42.97;;;24.70;;
15412;SDS011;7805;49.554;7.632;2022-12-18T11:30:07;42.47;;;24.30;;
15412;SDS011;7805;49.554;7.632;2022-12-18T11:38:22;44.40;;;24.57;;
15412;SDS011;7805;49.554;7.632;2022-12-18T11:43:50;44.23;;;24.97;;
15412;SDS011;7805;49.554;7.632;2022-12-18T11:46:34;44.70;;;23.27;;
15412;SDS011;7805;49.554;7.632;2022-12-18T11:49:22;41.13;;;22.90;;
15412;SDS011;7805;49.554;7.632;2022-12-18T11:54:43;42.13;;;24.03;;
15412;SDS011;7805;49.554;7.632;2022-12-18T11:57:25;43.10;;;22.80;;
15412;SDS011;7805;49.554;7.632;2022-12-18T12:16:31;42.53;;;23.20;;
15412;SDS011;7805;49.554;7.632;2022-12-18T12:34:07;39.20;;;22.33;;
15412;SDS011;7805;49.554;7.632;2022-12-18T12:39:49;38.97;;;22.23;;
15412;SDS011;7805;49.554;7.632;2022-12-18T12:42:38;40.37;;;21.93;;
15412;SDS011;7805;49.554;7.632;2022-12-18T12:51:02;36.53;;;21.20;;
15412;SDS011;7805;49.554;7.632;2022-12-18T12:53:35;37.13;;;21.53;;
15412;SDS011;7805;49.554;7.632;2022-12-18T12:56:03;42.80;;;22.73;;
15412;SDS011;7805;49.554;7.632;2022-12-18T13:07:15;38.03;;;22.87;;
15412;SDS011;7805;49.554;7.632;2022-12-18T13:12:36;40.50;;;23.13;;
15412;SDS011;7805;49.554;7.632;2022-12-18T13:15:21;42.37;;;23.13;;
15412;SDS011;7805;49.554;7.632;2022-12-18T13:17:49;48.03;;;28.00;;
15412;SDS011;7805;49.554;7.632;2022-12-18T13:25:59;67.77;;;35.73;;
15412;SDS011;7805;49.554;7.632;2022-12-18T13:36:44;38.30;;;22.27;;
15412;SDS011;7805;49.554;7.632;2022-12-18T13:41:49;43.67;;;23.57;;
15412;SDS011;7805;49.554;7.632;2022-12-18T13:44:55;44.33;;;23.17;;
15412;SDS011;7805;49.554;7.632;2022-12-18T13:47:25;41.27;;;24.63;;
15412;SDS011;7805;49.554;7.632;2022-12-18T13:49:51;43.40;;;23.20;;
15412;SDS011;7805;49.554;7.632;2022-12-18T13:52:19;42.30;;;24.53;;
15412;SDS011;7805;49.554;7.632;2022-12-18T13:54:48;44.53;;;24.20;;
15412;SDS011;7805;49.554;7.632;2022-12-18T13:57:50;43.83;;;25.13;;
15412;SDS011;7805;49.554;7.632;2022-12-18T14:00:51;40.10;;;23.07;;
15412;SDS011;7805;49.554;7.632;2022-12-18T14:02:58;40.60;;;21.80;;
15412;SDS011;7805;49.554;7.632;2022-12-18T14:05:28;46.77;;;24.40;;
15412;SDS011;7805;49.554;7.632;2022-12-18T14:08:08;38.90;;;23.47;;
15412;SDS011;7805;49.554;7.632;2022-12-18T14:10:39;42.83;;;23.63;;
15412;SDS011;7805;49.554;7.632;2022-12-18T14:13:07;41.50;;;22.80;;
15412;SDS011;7805;49.554;7.632;2022-12-18T14:15:45;44.27;;;25.27;;
15412;SDS011;7805;49.554;7.632;2022-12-18T14:20:48;40.33;;;22.30;;
15412;SDS011;7805;49.554;7.632;2022-12-18T14:23:25;44.03;;;22.63;;
15412;SDS011;7805;49.554;7.632;2022-12-18T14:25:51;39.63;;;23.17;;
15412;SDS011;7805;49.554;7.632;2022-12-18T14:28:16;42.40;;;24.37;;
15412;SDS011;7805;49.554;7.632;2022-12-18T14:30:43;42.07;;;22.83;;
15412;SDS011;7805;49.554;7.632;2022-12-18T14:35:41;44.57;;;23.40;;
15412;SDS011;7805;49.554;7.632;2022-12-18T14:43:29;41.37;;;23.30;;
15412;SDS011;7805;49.554;7.632;2022-12-18T14:45:58;45.57;;;24.47;;
15412;SDS011;7805;49.554;7.632;2022-12-18T14:48:33;41.33;;;23.37;;
15412;SDS011;7805;49.554;7.632;2022-12-18T14:53:42;41.37;;;23.27;;
15412;SDS011;7805;49.554;7.632;2022-12-18T14:58:46;38.83;;;22.27;;
15412;SDS011;7805;49.554;7.632;2022-12-18T15:01:21;41.23;;;24.07;;
15412;SDS011;7805;49.554;7.632;2022-12-18T15:03:49;44.43;;;23.77;;
15412;SDS011;7805;49.554;7.632;2022-12-18T15:06:26;43.43;;;23.37;;
15412;SDS011;7805;49.554;7.632;2022-12-18T15:08:57;44.43;;;25.60;;
15412;SDS011;7805;49.554;7.632;2022-12-18T15:14:40;41.17;;;22.37;;
15412;SDS011;7805;49.554;7.632;2022-12-18T15:17:13;43.47;;;23.43;;
15412;SDS011;7805;49.554;7.632;2022-12-18T15:19:44;40.60;;;23.00;;
15412;SDS011;7805;49.554;7.632;2022-12-18T15:22:15;43.30;;;23.73;;
15412;SDS011;7805;49.554;7.632;2022-12-18T15:24:42;42.17;;;24.80;;
15412;SDS011;7805;49.554;7.632;2022-12-18T15:27:19;44.33;;;24.47;;
15412;SDS011;7805;49.554;7.632;2022-12-18T15:29:58;53.43;;;31.10;;
15412;SDS011;7805;49.554;7.632;2022-12-18T15:32:25;63.80;;;35.97;;
15412;SDS011;7805;49.554;7.632;2022-12-18T15:34:50;55.77;;;32.20;;
15412;SDS011;7805;49.554;7.632;2022-12-18T15:37:38;49.53;;;27.93;;
15412;SDS011;7805;49.554;7.632;2022-12-18T15:40:04;50.83;;;28.97;;
15412;SDS011;7805;49.554;7.632;2022-12-18T15:42:30;58.40;;;31.43;;
15412;SDS011;7805;49.554;7.632;2022-12-18T15:45:14;53.67;;;28.93;;
15412;SDS011;7805;49.554;7.632;2022-12-18T15:47:40;52.77;;;28.83;;
15412;SDS011;7805;49.554;7.632;2022-12-18T15:50:08;52.30;;;31.10;;
15412;SDS011;7805;49.554;7.632;2022-12-18T15:52:44;69.40;;;36.73;;
15412;SDS011;7805;49.554;7.632;2022-12-18T15:55:15;58.00;;;33.37;;
15412;SDS011;7805;49.554;7.632;2022-12-18T15:58:01;58.53;;;30.87;;
15412;SDS011;7805;49.554;7.632;2022-12-18T16:00:27;56.87;;;31.33;;
15412;SDS011;7805;49.554;7.632;2022-12-18T16:02:52;60.67;;;33.10;;
15412;SDS011;7805;49.554;7.632;2022-12-18T16:05:18;57.27;;;31.40;;
15412;SDS011;7805;49.554;7.632;2022-12-18T16:07:45;64.00;;;34.13;;
15412;SDS011;7805;49.554;7.632;2022-12-18T16:10:12;63.20;;;34.37;;
15412;SDS011;7805;49.554;7.632;2022-12-18T16:12:37;59.03;;;32.80;;
15412;SDS011;7805;49.554;7.632;2022-12-18T16:15:04;88.57;;;50.97;;
15412;SDS011;7805;49.554;7.632;2022-12-18T16:17:33;70.93;;;43.07;;
15412;SDS011;7805;49.554;7.632;2022-12-18T16:20:01;62.50;;;34.27;;
15412;SDS011;7805;49.554;7.632;2022-12-18T16:22:28;54.03;;;31.57;;
15412;SDS011;7805;49.554;7.632;2022-12-18T16:24:55;49.20;;;28.70;;
15412;SDS011;7805;49.554;7.632;2022-12-18T16:27:21;47.83;;;28.67;;
15412;SDS011;7805;49.554;7.632;2022-12-18T16:29:48;52.63;;;30.03;;
15412;SDS011;7805;49.554;7.632;2022-12-18T16:32:17;48.47;;;27.90;;
15412;SDS011;7805;49.554;7.632;2022-12-18T16:34:46;51.50;;;27.27;;
15412;SDS011;7805;49.554;7.632;2022-12-18T16:37:12;53.27;;;28.47;;
15412;SDS011;7805;49.554;7.632;2022-12-18T16:39:39;49.07;;;26.20;;
15412;SDS011;7805;49.554;7.632;2022-12-18T16:42:13;53.03;;;28.73;;
15412;SDS011;7805;49.554;7.632;2022-12-18T16:44:44;51.83;;;29.40;;
15412;SDS011;7805;49.554;7.632;2022-12-18T16:47:10;52.03;;;28.90;;
15412;SDS011;7805;49.554;7.632;2022-12-18T16:49:36;55.83;;;30.40;;
15412;SDS011;7805;49.554;7.632;2022-12-18T16:52:03;52.80;;;29.50;;
15412;SDS011;7805;49.554;7.632;2022-12-18T16:54:32;49.23;;;27.90;;
15412;SDS011;7805;49.554;7.632;2022-12-18T16:57:00;49.33;;;27.37;;
15412;SDS011;7805;49.554;7.632;2022-12-18T16:59:26;51.40;;;27.80;;
15412;SDS011;7805;49.554;7.632;2022-12-18T17:01:53;45.20;;;27.40;;
15412;SDS011;7805;49.554;7.632;2022-12-18T17:04:20;43.80;;;25.70;;
15412;SDS011;7805;49.554;7.632;2022-12-18T17:06:45;47.03;;;26.97;;